Time;durP1;ratioP1;P1;durP2;ratioP2;P2;SDS_P1;SDS_P2;PMS_P1;PMS_P2;Temp;Humidity;BMP_temperature;BMP_pressure;BME280_temperature;BME280_humidity;BME280_pressure;Samples;Min_cycle;Max_cycle;Signal;HPM_P1;HPM_P2
2023/11/25 00:01:00;;;;;;;0.20;0.20;;;;;;;6.80;84.63;99483.25;4983053;28;20479;-86
2023/11/25 00:03:26;;;;;;;0.20;0.20;;;;;;;6.81;85.32;99500.34;4982597;28;20041;-86
2023/11/25 00:05:51;;;;;;;0.17;0.17;;;;;;;6.88;85.77;99491.38;5014588;28;20090;-86
2023/11/25 00:08:17;;;;;;;0.10;0.10;;;;;;;6.84;85.46;99477.03;4998273;28;20108;-86
2023/11/25 00:10:43;;;;;;;0.20;0.20;;;;;;;6.96;85.68;99486.69;4982118;28;20031;-86
2023/11/25 00:13:09;;;;;;;0.10;0.10;;;;;;;6.63;82.86;99478.97;4998313;28;20056;-86
2023/11/25 00:15:34;;;;;;;0.10;0.10;;;;;;;6.65;85.34;99463.47;4998771;28;20033;-86
2023/11/25 00:18:00;;;;;;;0.10;0.10;;;;;;;6.66;85.11;99455.69;5032002;28;20033;-86
2023/11/25 00:20:25;;;;;;;0.10;0.10;;;;;;;6.78;83.70;99477.34;5014239;28;20029;-86
2023/11/25 00:22:52;;;;;;;0.10;0.10;;;;;;;6.75;82.75;99467.22;5014172;28;20104;-86
2023/11/25 00:25:18;;;;;;;0.10;0.10;;;;;;;6.54;83.63;99444.28;4998724;28;20446;-86
2023/11/25 00:27:46;;;;;;;0.20;0.20;;;;;;;6.67;84.28;99454.78;4998126;28;20419;-86
2023/11/25 00:30:11;;;;;;;0.20;0.20;;;;;;;6.75;84.00;99456.94;4998169;28;20030;-86
2023/11/25 00:32:37;;;;;;;0.10;0.10;;;;;;;6.65;83.44;99455.75;4981701;28;20035;-86
2023/11/25 00:35:05;;;;;;;0.20;0.20;;;;;;;6.67;83.90;99443.66;4998037;28;20108;-87
2023/11/25 00:37:31;;;;;;;0.10;0.10;;;;;;;6.78;84.38;99449.91;4997786;28;20075;-86
2023/11/25 00:39:59;;;;;;;0.10;0.10;;;;;;;6.72;83.69;99442.53;5013610;28;20032;-87
2023/11/25 00:42:25;;;;;;;0.10;0.10;;;;;;;6.72;84.44;99445.09;4982176;28;20029;-86
2023/11/25 00:44:51;;;;;;;0.10;0.10;;;;;;;6.78;84.60;99425.94;4997473;28;20060;-86
2023/11/25 00:47:16;;;;;;;0.10;0.10;;;;;;;6.60;84.47;99423.44;4997624;28;20048;-87
2023/11/25 00:49:43;;;;;;;0.10;0.10;;;;;;;6.58;83.77;99422.66;4997489;28;20021;-86
2023/11/25 00:52:09;;;;;;;0.10;0.10;;;;;;;6.59;84.17;99420.94;5013779;28;20029;-86
2023/11/25 00:54:34;;;;;;;0.20;0.20;;;;;;;6.61;83.02;99414.81;4997520;28;20087;-87
2023/11/25 00:57:03;;;;;;;0.10;0.10;;;;;;;6.77;83.77;99432.81;4997753;28;20037;-86
2023/11/25 00:59:29;;;;;;;0.20;0.20;;;;;;;6.52;83.96;99391.34;4997793;28;20121;-86
2023/11/25 01:01:55;;;;;;;0.20;0.20;;;;;;;6.85;84.77;99432.44;5030245;28;20072;-86
2023/11/25 01:04:20;;;;;;;0.10;0.10;;;;;;;6.76;84.49;99427.78;4997187;28;20060;-86
2023/11/25 01:06:49;;;;;;;0.20;0.20;;;;;;;6.72;83.96;99421.13;4996925;28;20451;-86
2023/11/25 01:09:16;;;;;;;0.20;0.20;;;;;;;6.69;84.33;99404.16;4998404;28;20086;-86
2023/11/25 01:11:42;;;;;;;0.20;0.20;;;;;;;6.72;84.60;99414.25;5013714;28;20072;-86
2023/11/25 01:14:08;;;;;;;0.20;0.20;;;;;;;6.59;83.91;99416.66;5013703;28;20025;-86
2023/11/25 01:16:34;;;;;;;0.10;0.10;;;;;;;6.67;84.08;99431.63;5013553;28;20034;-86
2023/11/25 01:18:59;;;;;;;0.10;0.10;;;;;;;6.60;83.22;99423.44;4996877;28;21510;-86
2023/11/25 01:21:25;;;;;;;0.10;0.10;;;;;;;6.49;83.46;99418.03;4997187;28;20033;-86
2023/11/25 01:23:51;;;;;;;0.10;0.10;;;;;;;6.52;83.64;99425.56;4997135;28;20108;-86
2023/11/25 01:26:16;;;;;;;0.10;0.10;;;;;;;6.58;83.83;99420.09;5013048;28;20041;-87
2023/11/25 01:28:43;;;;;;;0.10;0.10;;;;;;;6.65;83.58;99424.94;4981026;28;20030;-86
2023/11/25 01:31:10;;;;;;;0.20;0.20;;;;;;;6.57;83.75;99422.75;4980562;28;20029;-86
2023/11/25 01:33:36;;;;;;;0.10;0.10;;;;;;;6.29;83.06;99418.19;4996705;28;20088;-87
2023/11/25 01:36:02;;;;;;;0.10;0.10;;;;;;;6.26;83.94;99400.38;5013242;28;20040;-87
2023/11/25 01:38:28;;;;;;;0.20;0.20;;;;;;;6.28;84.38;99408.81;4996980;28;20033;-86
2023/11/25 01:40:55;;;;;;;0.10;0.10;;;;;;;6.28;83.90;99407.06;5012861;28;20029;-86
2023/11/25 01:43:23;;;;;;;0.20;0.20;;;;;;;6.23;82.28;99403.09;4980996;28;20491;-86
2023/11/25 01:45:50;;;;;;;0.20;0.20;;;;;;;6.13;80.99;99387.31;4997021;28;20408;-86
2023/11/25 01:48:16;;;;;;;0.10;0.10;;;;;;;6.09;83.32;99390.09;5012964;28;20059;-86
2023/11/25 01:50:45;;;;;;;0.10;0.10;;;;;;;6.07;83.99;99381.66;4996978;28;20040;-86
2023/11/25 01:53:14;;;;;;;0.10;0.10;;;;;;;5.99;83.22;99382.84;4996972;28;20056;-87
2023/11/25 01:55:41;;;;;;;0.10;0.10;;;;;;;5.97;83.56;99371.00;4980794;28;20392;-86
2023/11/25 01:58:07;;;;;;;0.10;0.10;;;;;;;5.98;83.52;99352.97;5013403;28;20029;-87
2023/11/25 02:00:34;;;;;;;0.10;0.10;;;;;;;6.10;83.59;99363.53;4996715;28;20459;-86
2023/11/25 02:03:00;;;;;;;0.20;0.20;;;;;;;6.11;84.79;99354.94;4980402;28;20037;-86
2023/11/25 02:05:25;;;;;;;0.10;0.10;;;;;;;6.16;84.41;99351.22;4996381;28;20026;-86
2023/11/25 02:07:51;;;;;;;0.10;0.10;;;;;;;6.07;84.05;99338.84;5029336;28;20025;-86
2023/11/25 02:10:16;;;;;;;0.20;0.20;;;;;;;6.12;83.37;99343.75;5012637;28;20029;-86
2023/11/25 02:12:42;;;;;;;0.20;0.20;;;;;;;6.01;84.10;99350.25;4996205;28;20064;-86
2023/11/25 02:15:11;;;;;;;0.15;0.15;;;;;;;5.95;83.64;99335.16;4996268;28;20116;-87
2023/11/25 02:17:38;;;;;;;0.20;0.20;;;;;;;5.97;83.55;99335.91;5012331;28;20120;-88
2023/11/25 02:20:10;;;;;;;0.20;0.20;;;;;;;6.04;84.46;99352.66;4996479;28;20617;-87
2023/11/25 02:22:36;;;;;;;0.20;0.20;;;;;;;6.14;84.45;99355.59;5013592;28;20422;-87
2023/11/25 02:25:05;;;;;;;0.20;0.20;;;;;;;6.14;83.90;99357.34;5012705;28;20032;-86
2023/11/25 02:27:30;;;;;;;0.17;0.17;;;;;;;6.01;84.23;99357.13;4996676;28;20022;-86
2023/11/25 02:29:56;;;;;;;0.10;0.10;;;;;;;5.92;84.22;99342.19;4996087;28;20038;-87
2023/11/25 02:32:21;;;;;;;0.20;0.20;;;;;;;6.00;84.91;99353.75;4979820;28;20037;-86
2023/11/25 02:34:47;;;;;;;0.10;0.10;;;;;;;5.88;84.99;99341.47;4996021;28;20112;-86
2023/11/25 02:37:15;;;;;;;0.20;0.20;;;;;;;6.04;83.90;99351.84;4996515;28;20471;-87
2023/11/25 02:39:42;;;;;;;0.20;0.20;;;;;;;6.15;83.23;99343.59;5029962;28;20517;-86
2023/11/25 02:42:09;;;;;;;0.13;0.13;;;;;;;6.11;83.01;99334.41;4996143;28;20025;-86
2023/11/25 02:44:35;;;;;;;0.10;0.10;;;;;;;6.16;83.10;99350.38;4980136;28;20033;-86
2023/11/25 02:47:01;;;;;;;0.10;0.10;;;;;;;6.04;84.35;99346.69;4995841;28;20470;-86
2023/11/25 02:49:27;;;;;;;0.20;0.20;;;;;;;6.12;84.20;99333.47;4996119;28;20037;-86
2023/11/25 02:51:55;;;;;;;0.10;0.10;;;;;;;6.13;84.31;99330.84;4979952;28;20030;-86
2023/11/25 02:54:21;;;;;;;0.10;0.10;;;;;;;6.10;84.66;99325.03;4997374;28;20072;-86
2023/11/25 02:56:47;;;;;;;0.10;0.10;;;;;;;6.17;84.30;99336.63;4996170;28;20022;-85
2023/11/25 02:59:13;;;;;;;0.10;0.10;;;;;;;6.18;84.61;99344.25;4996226;28;20029;-86
2023/11/25 03:01:48;;;;;;;0.20;0.20;;;;;;;6.19;84.69;99339.94;4979819;28;20594;-85
2023/11/25 03:04:19;;;;;;;0.20;0.20;;;;;;;6.28;85.37;99337.72;5015690;28;20033;-86
2023/11/25 03:06:45;;;;;;;0.10;0.10;;;;;;;6.48;84.90;99339.25;5015985;28;20030;-86
2023/11/25 03:09:11;;;;;;;0.10;0.10;;;;;;;6.40;85.33;99340.59;5016010;28;20025;-86
2023/11/25 03:11:37;;;;;;;0.10;0.10;;;;;;;6.42;84.64;99331.91;4983115;28;20491;-86
2023/11/25 03:14:03;;;;;;;0.20;0.20;;;;;;;6.38;85.38;99340.66;4982925;28;20033;-86
2023/11/25 03:16:32;;;;;;;0.20;0.20;;;;;;;6.33;84.83;99346.03;4999751;28;20025;-86
2023/11/25 03:18:57;;;;;;;0.20;0.20;;;;;;;6.31;84.05;99336.75;4999759;28;20041;-86
2023/11/25 03:21:24;;;;;;;0.10;0.10;;;;;;;6.25;84.29;99342.22;5015452;28;20025;-86
2023/11/25 03:23:50;;;;;;;0.10;0.10;;;;;;;6.04;84.72;99321.84;5032192;28;20411;-86
2023/11/25 03:26:16;;;;;;;0.10;0.10;;;;;;;6.27;85.77;99342.94;5015592;28;20483;-86
2023/11/25 03:28:41;;;;;;;0.10;0.10;;;;;;;6.28;84.41;99344.59;4998992;28;20064;-85
2023/11/25 03:31:09;;;;;;;0.10;0.10;;;;;;;6.18;83.64;99333.97;5015331;28;20029;-86
2023/11/25 03:33:35;;;;;;;0.20;0.20;;;;;;;6.25;84.36;99349.91;4983625;28;20502;-86
2023/11/25 03:36:00;;;;;;;0.10;0.10;;;;;;;6.23;86.01;99351.72;4999495;28;20030;-86
2023/11/25 03:38:26;;;;;;;0.10;0.10;;;;;;;6.24;85.50;99355.97;4999185;28;20041;-87
2023/11/25 03:40:52;;;;;;;0.20;0.20;;;;;;;6.21;85.19;99340.72;4982603;28;20068;-86
2023/11/25 03:43:21;;;;;;;0.15;0.15;;;;;;;6.20;83.30;99357.88;4982674;28;20407;-86
2023/11/25 03:45:48;;;;;;;0.10;0.10;;;;;;;6.02;83.93;99338.25;4968637;28;20042;-86
2023/11/25 03:48:14;;;;;;;0.10;0.10;;;;;;;6.16;85.00;99363.22;4994738;28;20432;-87
2023/11/25 03:50:39;;;;;;;0.20;0.20;;;;;;;5.82;85.32;99346.09;4963266;28;20021;-86
2023/11/25 03:53:05;;;;;;;0.20;0.20;;;;;;;5.91;85.69;99346.50;4979302;28;20555;-86
2023/11/25 03:55:31;;;;;;;0.10;0.10;;;;;;;5.78;85.92;99329.16;4995285;28;20096;-86
2023/11/25 03:57:56;;;;;;;0.10;0.10;;;;;;;5.88;86.05;99348.34;4978980;28;20058;-86
2023/11/25 04:00:22;;;;;;;0.20;0.20;;;;;;;5.86;85.55;99345.84;4979238;28;20033;-86
2023/11/25 04:02:48;;;;;;;0.20;0.20;;;;;;;5.82;84.68;99344.34;4979546;28;20080;-86
2023/11/25 04:05:14;;;;;;;0.10;0.10;;;;;;;5.73;84.84;99337.13;4978701;28;20037;-86
2023/11/25 04:07:39;;;;;;;0.10;0.10;;;;;;;5.60;86.09;99343.72;4995259;28;20145;-86
2023/11/25 04:10:12;;;;;;;0.10;0.10;;;;;;;5.69;87.44;99356.09;4979056;28;20017;-86
2023/11/25 04:12:47;;;;;;;0.10;0.10;;;;;;;5.71;86.65;99352.59;4980357;28;20056;-86
2023/11/25 04:15:15;;;;;;;0.10;0.10;;;;;;;5.79;85.44;99357.31;4978808;28;20030;-86
2023/11/25 04:17:41;;;;;;;0.10;0.10;;;;;;;5.70;85.41;99334.69;4963075;28;20026;-85
2023/11/25 04:20:14;;;;;;;0.10;0.10;;;;;;;5.88;85.15;99356.03;4962875;28;20034;-86
2023/11/25 04:22:46;;;;;;;0.10;0.10;;;;;;;5.84;84.22;99355.38;4995737;28;20026;-86
2023/11/25 04:25:12;;;;;;;0.20;0.20;;;;;;;5.79;84.29;99346.22;4962654;28;20033;-85
2023/11/25 04:27:41;;;;;;;0.10;0.10;;;;;;;5.82;85.01;99336.66;4978199;28;20029;-86
2023/11/25 04:30:10;;;;;;;0.10;0.10;;;;;;;5.96;84.68;99351.38;4978710;28;20505;-86
2023/11/25 04:32:37;;;;;;;0.10;0.10;;;;;;;6.03;83.86;99361.28;4978464;28;20030;-86
2023/11/25 04:35:05;;;;;;;0.20;0.20;;;;;;;5.96;82.79;99357.34;4962332;28;20076;-86
2023/11/25 04:37:31;;;;;;;0.10;0.10;;;;;;;6.07;82.87;99363.69;4979130;28;20116;-87
2023/11/25 04:39:56;;;;;;;0.20;0.20;;;;;;;6.06;81.92;99375.69;4994489;28;20057;-86
2023/11/25 04:42:23;;;;;;;0.10;0.10;;;;;;;5.90;82.00;99349.97;4978038;28;20030;-86
2023/11/25 04:44:49;;;;;;;0.10;0.10;;;;;;;6.03;81.92;99360.44;4981093;28;20030;-86
2023/11/25 04:47:14;;;;;;;0.20;0.20;;;;;;;5.96;79.24;99372.75;4981585;28;20036;-86
2023/11/25 04:49:40;;;;;;;0.10;0.10;;;;;;;5.85;80.42;99364.72;4997837;28;20499;-86
2023/11/25 04:52:05;;;;;;;0.10;0.10;;;;;;;5.85;80.51;99375.00;4997599;28;20487;-86
2023/11/25 04:54:32;;;;;;;0.10;0.10;;;;;;;5.90;79.92;99375.66;4997754;28;20108;-86
2023/11/25 04:56:58;;;;;;;0.20;0.20;;;;;;;5.95;80.82;99383.09;5013283;28;20083;-85
2023/11/25 04:59:24;;;;;;;0.20;0.20;;;;;;;5.79;81.73;99356.50;4997228;28;20530;-86
2023/11/25 05:01:49;;;;;;;0.20;0.20;;;;;;;5.87;81.90;99360.34;5013744;28;20057;-86
2023/11/25 05:04:15;;;;;;;0.17;0.17;;;;;;;6.01;82.25;99393.91;5013481;28;20569;-86
2023/11/25 05:06:41;;;;;;;0.20;0.20;;;;;;;6.03;82.32;99386.94;5031373;28;20060;-86
2023/11/25 05:09:06;;;;;;;0.10;0.10;;;;;;;5.93;81.96;99378.06;4997405;28;20388;-87
2023/11/25 05:11:32;;;;;;;0.20;0.20;;;;;;;5.99;82.63;99388.00;4996667;28;20031;-86
2023/11/25 05:13:58;;;;;;;0.15;0.15;;;;;;;6.09;82.71;99396.06;4997582;28;20064;-86
2023/11/25 05:16:24;;;;;;;0.10;0.10;;;;;;;5.82;82.38;99352.06;4980996;28;20061;-86
2023/11/25 05:18:49;;;;;;;0.20;0.20;;;;;;;6.06;82.88;99385.13;4996960;28;20034;-86
2023/11/25 05:21:15;;;;;;;0.10;0.10;;;;;;;6.04;82.74;99373.19;4997015;28;21355;-86
2023/11/25 05:23:40;;;;;;;0.20;0.20;;;;;;;6.10;82.59;99391.78;4996989;28;20060;-85
2023/11/25 05:26:07;;;;;;;0.20;0.20;;;;;;;6.08;83.08;99388.44;5013251;28;20065;-86
2023/11/25 05:28:33;;;;;;;0.10;0.10;;;;;;;5.99;83.34;99385.44;5013921;28;20033;-85
2023/11/25 05:30:59;;;;;;;0.20;0.20;;;;;;;6.06;83.15;99395.41;5013360;28;20380;-85
2023/11/25 05:33:25;;;;;;;0.20;0.20;;;;;;;5.96;83.19;99406.13;5012965;28;20112;-85
2023/11/25 05:35:50;;;;;;;0.10;0.10;;;;;;;5.85;83.31;99387.00;4997277;28;20030;-86
2023/11/25 05:38:18;;;;;;;0.10;0.10;;;;;;;5.77;82.36;99382.22;4997177;28;20033;-86
2023/11/25 05:40:43;;;;;;;0.10;0.10;;;;;;;5.88;80.65;99408.19;4980816;28;20499;-85
2023/11/25 05:43:09;;;;;;;0.20;0.20;;;;;;;5.86;80.37;99398.91;4980489;28;20040;-86
2023/11/25 05:45:38;;;;;;;0.20;0.20;;;;;;;5.86;80.80;99398.91;4996689;28;20474;-86
2023/11/25 05:48:04;;;;;;;0.10;0.10;;;;;;;5.81;82.26;99393.19;4997710;28;20487;-87
2023/11/25 05:50:30;;;;;;;0.10;0.10;;;;;;;5.91;81.73;99392.69;5012988;28;20033;-86
2023/11/25 05:52:56;;;;;;;0.13;0.13;;;;;;;5.82;81.17;99397.44;5012904;28;20037;-86
2023/11/25 05:55:21;;;;;;;0.20;0.20;;;;;;;5.71;80.76;99385.13;4980282;28;20483;-85
2023/11/25 05:57:50;;;;;;;0.20;0.20;;;;;;;5.68;80.48;99391.22;4996709;28;20036;-85
2023/11/25 06:00:15;;;;;;;0.10;0.10;;;;;;;5.68;81.39;99405.78;4997413;28;20025;-86
2023/11/25 06:02:41;;;;;;;0.10;0.10;;;;;;;5.55;82.15;99399.56;5012972;28;20029;-86
2023/11/25 06:05:08;;;;;;;0.10;0.10;;;;;;;5.62;81.10;99406.91;4996606;28;20037;-86
2023/11/25 06:07:34;;;;;;;0.20;0.20;;;;;;;5.52;82.88;99394.59;5012779;28;20487;-87
2023/11/25 06:10:00;;;;;;;0.20;0.20;;;;;;;5.48;82.58;99371.63;4996276;28;20026;-86
2023/11/25 06:12:26;;;;;;;0.20;0.20;;;;;;;5.58;81.89;99400.25;4996281;28;20075;-86
2023/11/25 06:14:55;;;;;;;0.20;0.20;;;;;;;5.59;83.01;99411.34;4996427;28;20030;-86
2023/11/25 06:17:23;;;;;;;0.10;0.10;;;;;;;5.43;81.21;99409.53;4997056;28;20025;-87
2023/11/25 06:19:49;;;;;;;0.20;0.20;;;;;;;5.41;81.89;99402.81;4996659;28;20032;-86
2023/11/25 06:22:14;;;;;;;0.20;0.20;;;;;;;5.52;83.12;99405.69;5012804;28;20033;-86
2023/11/25 06:24:40;;;;;;;0.15;0.15;;;;;;;5.54;83.06;99403.88;5012747;28;20029;-87
2023/11/25 06:27:06;;;;;;;0.20;0.20;;;;;;;5.37;81.26;99391.84;4996399;28;20069;-87
2023/11/25 06:29:32;;;;;;;0.20;0.20;;;;;;;5.42;82.97;99397.59;4996191;28;20028;-86
2023/11/25 06:31:57;;;;;;;0.10;0.10;;;;;;;5.55;83.28;99405.53;4980048;28;20030;-86
2023/11/25 06:34:23;;;;;;;0.20;0.20;;;;;;;5.61;82.72;99394.16;4996366;28;20041;-86
2023/11/25 06:36:48;;;;;;;0.10;0.10;;;;;;;5.54;83.19;99360.28;4995647;28;20549;-85
2023/11/25 06:39:19;;;;;;;0.10;0.10;;;;;;;5.50;83.91;99389.53;5016448;28;20034;-86
2023/11/25 06:41:48;;;;;;;0.20;0.20;;;;;;;5.45;83.60;99378.66;5016326;28;20061;-86
2023/11/25 06:44:16;;;;;;;0.20;0.20;;;;;;;5.53;83.98;99380.88;5016737;28;20091;-86
2023/11/25 06:46:42;;;;;;;0.10;0.10;;;;;;;5.57;83.85;99372.09;4999585;28;20061;-86
2023/11/25 06:49:07;;;;;;;0.10;0.10;;;;;;;5.53;83.73;99378.31;4983622;28;20025;-87
2023/11/25 06:51:33;;;;;;;0.10;0.10;;;;;;;5.60;83.85;99361.69;4983198;28;20037;-86
2023/11/25 06:53:59;;;;;;;0.20;0.20;;;;;;;5.59;83.82;99344.63;5032569;28;20072;-86
2023/11/25 06:56:25;;;;;;;0.20;0.20;;;;;;;5.62;83.34;99347.06;4983600;28;20392;-87
2023/11/25 06:58:52;;;;;;;0.20;0.20;;;;;;;5.69;82.94;99351.81;4999686;28;20049;-86
2023/11/25 07:01:21;;;;;;;0.10;0.10;;;;;;;5.68;82.61;99352.72;5016364;28;20029;-87
2023/11/25 07:03:48;;;;;;;0.20;0.20;;;;;;;5.61;82.18;99337.72;4984491;28;20033;-86
2023/11/25 07:06:16;;;;;;;0.10;0.10;;;;;;;5.67;82.30;99357.94;4999526;28;20525;-86
2023/11/25 07:08:42;;;;;;;0.20;0.20;;;;;;;5.56;83.22;99357.63;4999900;28;20083;-85
2023/11/25 07:11:10;;;;;;;0.20;0.20;;;;;;;5.61;82.55;99355.69;4998871;28;20029;-87
2023/11/25 07:13:36;;;;;;;0.20;0.20;;;;;;;5.65;83.00;99382.84;5000185;28;20025;-86
2023/11/25 07:16:04;;;;;;;0.20;0.20;;;;;;;5.69;83.70;99402.31;4983210;28;20045;-86
2023/11/25 07:18:31;;;;;;;0.20;0.20;;;;;;;5.58;83.67;99389.16;4999787;28;20037;-86
2023/11/25 07:20:58;;;;;;;0.20;0.20;;;;;;;5.54;82.67;99383.34;5015091;28;20414;-86
2023/11/25 07:23:23;;;;;;;0.10;0.10;;;;;;;5.59;83.62;99396.78;4999417;28;20029;-86
2023/11/25 07:25:49;;;;;;;0.20;0.20;;;;;;;5.61;84.28;99400.13;4999633;28;20033;-87
2023/11/25 07:28:15;;;;;;;0.10;0.10;;;;;;;5.68;83.67;99390.38;5015606;28;20068;-86
2023/11/25 07:30:41;;;;;;;0.20;0.20;;;;;;;5.75;84.28;99392.56;4983129;28;20075;-86
2023/11/25 07:33:08;;;;;;;0.20;0.20;;;;;;;5.71;84.72;99387.69;4998970;28;20505;-86
2023/11/25 07:35:34;;;;;;;0.20;0.20;;;;;;;5.64;84.79;99363.22;5015029;28;20108;-86
2023/11/25 07:38:00;;;;;;;0.20;0.20;;;;;;;5.75;83.65;99379.75;4999555;28;20029;-86
2023/11/25 07:40:26;;;;;;;0.20;0.20;;;;;;;5.80;83.12;99371.84;4999447;28;20036;-86
2023/11/25 07:42:51;;;;;;;0.20;0.20;;;;;;;5.78;83.08;99370.22;4982608;28;20029;-86
2023/11/25 07:45:17;;;;;;;0.20;0.20;;;;;;;5.75;83.33;99366.09;4998930;28;20103;-86
2023/11/25 07:47:44;;;;;;;0.20;0.20;;;;;;;5.85;84.72;99362.16;4998851;28;20029;-86
2023/11/25 07:50:12;;;;;;;0.20;0.20;;;;;;;5.98;84.16;99352.97;4982377;28;20025;-86
2023/11/25 07:52:38;;;;;;;0.17;0.17;;;;;;;6.10;83.01;99346.41;4998735;28;20025;-86
2023/11/25 07:55:04;;;;;;;0.20;0.20;;;;;;;6.04;82.86;99326.16;4998662;28;20040;-86
2023/11/25 07:57:30;;;;;;;0.20;0.20;;;;;;;6.20;82.95;99336.50;4998758;28;20036;-87
2023/11/25 07:59:56;;;;;;;0.20;0.20;;;;;;;6.21;82.98;99340.72;5014978;28;20063;-86
2023/11/25 08:02:21;;;;;;;0.10;0.10;;;;;;;6.16;82.97;99322.13;4982276;28;20112;-86
2023/11/25 08:04:47;;;;;;;0.10;0.10;;;;;;;6.23;82.97;99326.88;5014640;28;20029;-87
2023/11/25 08:07:14;;;;;;;0.20;0.20;;;;;;;6.27;82.06;99343.78;5014832;28;20040;-86
2023/11/25 08:09:40;;;;;;;0.20;0.20;;;;;;;6.38;81.27;99350.94;5014776;28;20060;-87
2023/11/25 08:12:06;;;;;;;0.20;0.20;;;;;;;6.40;80.78;99338.84;4982147;28;20021;-86
2023/11/25 08:14:32;;;;;;;0.20;0.20;;;;;;;6.43;81.19;99332.72;4998240;28;20532;-86
2023/11/25 08:16:57;;;;;;;0.20;0.20;;;;;;;6.32;81.77;99331.53;4998332;28;20033;-86
2023/11/25 08:19:23;;;;;;;0.10;0.10;;;;;;;6.45;81.74;99347.13;4981678;28;20091;-86
2023/11/25 08:21:48;;;;;;;0.10;0.10;;;;;;;6.41;81.18;99347.41;5014691;28;20025;-86
2023/11/25 08:24:17;;;;;;;0.15;0.15;;;;;;;6.35;81.65;99338.25;4981960;28;20034;-86
2023/11/25 08:26:43;;;;;;;0.20;0.20;;;;;;;6.38;82.56;99340.66;4998638;28;20064;-85
2023/11/25 08:29:08;;;;;;;0.20;0.20;;;;;;;6.54;81.99;99351.78;4997821;28;20112;-86
2023/11/25 08:31:34;;;;;;;0.20;0.20;;;;;;;6.44;80.95;99348.06;4981776;28;20545;-86
2023/11/25 08:34:05;;;;;;;0.20;0.20;;;;;;;6.38;81.02;99329.56;4997688;28;20496;-86
2023/11/25 08:36:30;;;;;;;0.20;0.20;;;;;;;6.48;81.33;99328.97;4997972;28;20017;-85
2023/11/25 08:38:56;;;;;;;0.20;0.20;;;;;;;6.54;80.56;99336.38;4981559;28;20506;-86
2023/11/25 08:41:22;;;;;;;0.20;0.20;;;;;;;6.48;82.40;99315.31;4998318;28;20502;-86
2023/11/25 08:43:47;;;;;;;0.10;0.10;;;;;;;6.58;82.31;99307.03;4997503;28;20026;-86
2023/11/25 08:46:19;;;;;;;0.20;0.20;;;;;;;6.57;81.87;99310.50;4983449;28;20053;-86
2023/11/25 08:48:45;;;;;;;0.20;0.20;;;;;;;6.65;80.22;99319.56;4995106;28;20037;-86
2023/11/25 08:51:11;;;;;;;0.20;0.20;;;;;;;6.64;81.77;99317.91;4961916;28;20092;-87
2023/11/25 08:53:44;;;;;;;0.20;0.20;;;;;;;6.56;81.73;99292.63;5010580;28;20037;-86
2023/11/25 08:56:10;;;;;;;0.20;0.20;;;;;;;6.67;81.45;99290.28;4995008;28;20492;-87
2023/11/25 08:58:36;;;;;;;0.10;0.10;;;;;;;6.85;82.23;99301.31;4977903;28;20415;-87
2023/11/25 09:01:02;;;;;;;0.10;0.10;;;;;;;6.92;81.56;99297.50;4977499;28;20021;-86
2023/11/25 09:03:27;;;;;;;0.20;0.20;;;;;;;6.92;81.84;99294.94;4993665;28;20438;-87
2023/11/25 09:05:53;;;;;;;0.10;0.10;;;;;;;7.06;82.25;99297.56;4961736;28;20036;-86
2023/11/25 09:08:19;;;;;;;0.20;0.20;;;;;;;6.90;80.51;99282.19;4994361;28;20038;-87
2023/11/25 09:10:44;;;;;;;0.20;0.20;;;;;;;7.09;81.39;99307.69;4977690;28;20026;-86
2023/11/25 09:13:10;;;;;;;0.20;0.20;;;;;;;7.12;80.84;99297.22;4993920;28;20030;-87
2023/11/25 09:15:37;;;;;;;0.20;0.20;;;;;;;7.13;81.92;99293.75;4994344;28;20026;-86
2023/11/25 09:18:02;;;;;;;0.20;0.20;;;;;;;7.22;81.49;99307.84;4961489;28;20080;-86
2023/11/25 09:20:28;;;;;;;0.20;0.20;;;;;;;7.16;81.30;99280.69;4977745;28;20026;-87
2023/11/25 09:22:53;;;;;;;0.20;0.20;;;;;;;7.16;80.22;99269.59;4977240;28;20025;-87
2023/11/25 09:25:19;;;;;;;0.20;0.20;;;;;;;7.37;80.40;99285.56;4961546;28;20029;-86
2023/11/25 09:27:45;;;;;;;0.20;0.20;;;;;;;7.35;80.57;99266.81;4961504;28;20091;-86
2023/11/25 09:30:11;;;;;;;0.20;0.20;;;;;;;7.32;81.16;99272.97;4977437;28;20451;-87
2023/11/25 09:32:38;;;;;;;0.20;0.20;;;;;;;7.24;80.38;99248.59;4994229;28;20030;-87
2023/11/25 09:35:06;;;;;;;0.15;0.15;;;;;;;7.27;79.76;99256.13;4993506;28;20053;-86
2023/11/25 09:37:35;;;;;;;0.10;0.10;;;;;;;7.33;80.59;99269.47;4978037;28;20563;-86
2023/11/25 09:40:04;;;;;;;0.10;0.10;;;;;;;7.31;80.85;99271.31;4977711;28;20062;-86
2023/11/25 09:42:31;;;;;;;0.20;0.20;;;;;;;7.29;79.72;99272.31;4978430;28;20075;-86
2023/11/25 09:44:58;;;;;;;0.20;0.20;;;;;;;7.22;78.96;99271.81;4977250;28;20113;-86
2023/11/25 09:47:23;;;;;;;0.10;0.10;;;;;;;7.23;80.50;99262.38;4976789;28;20032;-86
2023/11/25 09:49:49;;;;;;;0.20;0.20;;;;;;;7.32;80.37;99262.66;5011233;28;20034;-85
2023/11/25 09:52:15;;;;;;;0.20;0.20;;;;;;;7.23;79.85;99259.78;4977020;28;20041;-86
2023/11/25 09:54:40;;;;;;;0.10;0.10;;;;;;;7.20;81.18;99253.09;4993651;28;20068;-85
2023/11/25 09:57:07;;;;;;;0.20;0.20;;;;;;;7.05;79.69;99226.47;4993293;28;20117;-85
2023/11/25 09:59:33;;;;;;;0.20;0.20;;;;;;;7.21;80.58;99244.44;4976877;28;20122;-85
2023/11/25 10:01:59;;;;;;;0.10;0.10;;;;;;;7.25;81.27;99251.06;4992887;28;20117;-85
2023/11/25 10:04:28;;;;;;;0.10;0.10;;;;;;;7.27;81.18;99248.41;5009581;28;20026;-85
2023/11/25 10:06:54;;;;;;;0.20;0.20;;;;;;;7.32;81.14;99251.56;4993259;28;20029;-85
2023/11/25 10:09:21;;;;;;;0.10;0.10;;;;;;;7.38;81.24;99251.22;5011121;28;20034;-85
2023/11/25 10:11:47;;;;;;;0.20;0.20;;;;;;;7.12;81.61;99216.69;4976992;28;20044;-86
2023/11/25 10:14:17;;;;;;;0.20;0.20;;;;;;;6.96;81.81;99198.72;4996991;28;20026;-84
2023/11/25 10:16:44;;;;;;;0.13;0.13;;;;;;;7.19;82.27;99223.97;5014198;28;20419;-86
2023/11/25 10:19:22;;;;;;;0.10;0.10;;;;;;;7.18;82.80;99235.19;4980898;28;20530;-85
2023/11/25 10:21:49;;;;;;;0.10;0.10;;;;;;;6.99;82.72;99219.13;4997127;28;20113;-85
2023/11/25 10:24:15;;;;;;;0.20;0.20;;;;;;;7.06;82.65;99225.56;4997468;28;20026;-86
2023/11/25 10:26:41;;;;;;;0.10;0.10;;;;;;;7.06;83.86;99241.00;5013132;28;20025;-85
2023/11/25 10:29:09;;;;;;;0.10;0.10;;;;;;;7.08;84.20;99218.63;5012954;28;20048;-85
2023/11/25 10:31:34;;;;;;;0.17;0.17;;;;;;;7.22;84.73;99219.56;4997490;28;20077;-85
2023/11/25 10:34:00;;;;;;;0.20;0.20;;;;;;;7.21;84.15;99218.72;4997062;28;20061;-84
2023/11/25 10:36:26;;;;;;;0.17;0.17;;;;;;;7.25;84.67;99214.22;4980599;28;20030;-85
2023/11/25 10:38:53;;;;;;;0.20;0.20;;;;;;;7.24;83.66;99205.69;4980443;28;20037;-85
2023/11/25 10:41:18;;;;;;;0.20;0.20;;;;;;;7.22;84.02;99206.69;4996910;28;20022;-85
2023/11/25 10:43:47;;;;;;;0.20;0.20;;;;;;;7.19;83.10;99200.81;4996239;28;20180;-84
2023/11/25 10:46:13;;;;;;;0.20;0.20;;;;;;;7.22;82.40;99198.97;5010325;28;20045;-85
2023/11/25 10:48:39;;;;;;;0.20;0.20;;;;;;;7.14;82.62;99196.84;5000335;28;20025;-84
2023/11/25 10:51:05;;;;;;;0.20;0.20;;;;;;;7.19;84.31;99200.81;4999811;28;20102;-85
2023/11/25 10:53:31;;;;;;;0.20;0.20;;;;;;;7.15;83.85;99199.31;4999897;28;20068;-85
2023/11/25 10:56:00;;;;;;;0.10;0.10;;;;;;;7.22;83.45;99188.69;5016165;28;20029;-85
2023/11/25 10:58:27;;;;;;;0.20;0.20;;;;;;;7.23;84.25;99190.34;4999826;28;20029;-85
2023/11/25 11:00:53;;;;;;;0.20;0.20;;;;;;;7.27;84.36;99184.09;4999904;28;20029;-84
2023/11/25 11:03:21;;;;;;;0.20;0.20;;;;;;;7.23;84.18;99162.06;5015798;28;20033;-85
2023/11/25 11:05:55;;;;;;;0.20;0.20;;;;;;;7.08;84.28;99130.31;4983518;28;20025;-85
2023/11/25 11:08:23;;;;;;;0.10;0.10;;;;;;;7.32;83.77;99162.34;4983709;28;20030;-85
2023/11/25 11:11:00;;;;;;;0.20;0.20;;;;;;;7.36;83.55;99168.94;5015636;28;20025;-85
2023/11/25 11:13:34;;;;;;;0.20;0.20;;;;;;;7.15;80.85;99163.31;4999434;28;20060;-85
2023/11/25 11:16:20;;;;;;;0.10;0.10;;;;;;;7.11;82.44;99156.72;5032648;28;20030;-85
2023/11/25 11:18:45;;;;;;;0.10;0.10;;;;;;;7.14;82.33;99150.56;5017414;28;20029;-85
2023/11/25 11:21:11;;;;;;;0.20;0.20;;;;;;;7.14;82.69;99143.66;5015713;28;20029;-85
2023/11/25 11:23:37;;;;;;;0.10;0.10;;;;;;;7.16;83.37;99136.69;4998806;28;20060;-85
2023/11/25 11:26:37;;;;;;;0.10;0.10;;;;;;;7.08;82.94;99110.59;4983156;28;20074;-85
2023/11/25 11:29:06;;;;;;;0.20;0.20;;;;;;;7.27;82.00;99128.31;5032768;28;20034;-85
2023/11/25 11:31:56;;;;;;;0.20;0.20;;;;;;;7.14;83.20;99101.69;5031847;28;20041;-85
2023/11/25 11:34:33;;;;;;;0.17;0.17;;;;;;;7.07;83.15;99090.09;5017229;28;20033;-85
2023/11/25 11:36:59;;;;;;;0.20;0.20;;;;;;;7.04;82.99;99072.28;5000180;28;20561;-85
2023/11/25 11:39:37;;;;;;;0.20;0.20;;;;;;;7.22;83.00;99096.09;5015461;28;20021;-85